sensor_id;sensor_type;location;lat;lon;timestamp;temperature;humidity
71396;DHT22;59888;55.814;37.132;2023-05-07T00:00:42;1.45;49.70
71396;DHT22;59888;55.814;37.132;2023-05-07T00:03:08;1.41;50.01
71396;DHT22;59888;55.814;37.132;2023-05-07T00:05:34;1.42;49.99
71396;DHT22;59888;55.814;37.132;2023-05-07T00:08:00;1.40;50.31
71396;DHT22;59888;55.814;37.132;2023-05-07T00:10:27;1.38;50.60
71396;DHT22;59888;55.814;37.132;2023-05-07T00:12:52;1.34;49.90
71396;DHT22;59888;55.814;37.132;2023-05-07T00:15:18;1.33;50.66
71396;DHT22;59888;55.814;37.132;2023-05-07T00:17:44;1.33;50.24
71396;DHT22;59888;55.814;37.132;2023-05-07T00:20:10;1.33;51.08
71396;DHT22;59888;55.814;37.132;2023-05-07T00:22:37;1.34;50.16
71396;DHT22;59888;55.814;37.132;2023-05-07T00:25:04;1.32;50.21
71396;DHT22;59888;55.814;37.132;2023-05-07T00:27:32;1.28;50.22
71396;DHT22;59888;55.814;37.132;2023-05-07T00:29:58;1.28;50.21
71396;DHT22;59888;55.814;37.132;2023-05-07T00:32:25;1.28;49.79
71396;DHT22;59888;55.814;37.132;2023-05-07T00:34:51;1.25;51.14
71396;DHT22;59888;55.814;37.132;2023-05-07T00:37:16;1.26;49.58
71396;DHT22;59888;55.814;37.132;2023-05-07T00:39:42;1.25;49.94
71396;DHT22;59888;55.814;37.132;2023-05-07T00:42:08;1.25;49.34
71396;DHT22;59888;55.814;37.132;2023-05-07T00:44:34;1.22;50.73
71396;DHT22;59888;55.814;37.132;2023-05-07T00:47:02;1.18;51.85
71396;DHT22;59888;55.814;37.132;2023-05-07T00:49:39;1.09;53.49
71396;DHT22;59888;55.814;37.132;2023-05-07T00:52:07;1.07;51.45
71396;DHT22;59888;55.814;37.132;2023-05-07T00:54:35;1.10;51.52
71396;DHT22;59888;55.814;37.132;2023-05-07T00:57:02;1.07;51.44
71396;DHT22;59888;55.814;37.132;2023-05-07T00:59:30;1.07;49.88
71396;DHT22;59888;55.814;37.132;2023-05-07T01:01:57;1.03;51.10
71396;DHT22;59888;55.814;37.132;2023-05-07T01:04:23;1.02;50.84
71396;DHT22;59888;55.814;37.132;2023-05-07T01:06:49;1.02;51.26
71396;DHT22;59888;55.814;37.132;2023-05-07T01:09:16;1.02;51.09
71396;DHT22;59888;55.814;37.132;2023-05-07T01:11:42;1.02;51.37
71396;DHT22;59888;55.814;37.132;2023-05-07T01:14:09;1.03;49.33
71396;DHT22;59888;55.814;37.132;2023-05-07T01:16:36;1.04;50.86
71396;DHT22;59888;55.814;37.132;2023-05-07T01:19:03;1.02;50.45
71396;DHT22;59888;55.814;37.132;2023-05-07T01:21:33;0.96;52.56
71396;DHT22;59888;55.814;37.132;2023-05-07T01:24:02;0.90;52.06
71396;DHT22;59888;55.814;37.132;2023-05-07T01:26:30;0.90;51.13
71396;DHT22;59888;55.814;37.132;2023-05-07T01:28:56;0.88;50.74
71396;DHT22;59888;55.814;37.132;2023-05-07T01:31:24;0.86;50.21
71396;DHT22;59888;55.814;37.132;2023-05-07T01:33:51;0.84;51.21
71396;DHT22;59888;55.814;37.132;2023-05-07T01:36:22;0.81;52.26
71396;DHT22;59888;55.814;37.132;2023-05-07T01:38:51;0.80;52.33
71396;DHT22;59888;55.814;37.132;2023-05-07T01:41:19;0.81;51.76
71396;DHT22;59888;55.814;37.132;2023-05-07T01:43:46;0.87;51.04
71396;DHT22;59888;55.814;37.132;2023-05-07T01:46:13;0.89;51.24
71396;DHT22;59888;55.814;37.132;2023-05-07T01:48:40;0.93;50.76
71396;DHT22;59888;55.814;37.132;2023-05-07T01:51:08;0.92;52.25
71396;DHT22;59888;55.814;37.132;2023-05-07T01:53:38;0.95;50.44
71396;DHT22;59888;55.814;37.132;2023-05-07T01:56:07;0.96;50.28
71396;DHT22;59888;55.814;37.132;2023-05-07T01:58:35;0.97;50.41
71396;DHT22;59888;55.814;37.132;2023-05-07T02:01:01;0.95;51.66
71396;DHT22;59888;55.814;37.132;2023-05-07T02:03:27;0.97;51.71
71396;DHT22;59888;55.814;37.132;2023-05-07T02:06:02;0.98;50.68
71396;DHT22;59888;55.814;37.132;2023-05-07T02:08:34;0.96;50.28
71396;DHT22;59888;55.814;37.132;2023-05-07T02:11:01;0.94;51.46
71396;DHT22;59888;55.814;37.132;2023-05-07T02:13:31;0.94;51.45
71396;DHT22;59888;55.814;37.132;2023-05-07T02:15:58;0.95;53.15
71396;DHT22;59888;55.814;37.132;2023-05-07T02:18:25;0.97;52.16
71396;DHT22;59888;55.814;37.132;2023-05-07T02:20:51;1.01;51.26
71396;DHT22;59888;55.814;37.132;2023-05-07T02:23:17;1.04;52.46
71396;DHT22;59888;55.814;37.132;2023-05-07T02:25:43;1.04;53.73
71396;DHT22;59888;55.814;37.132;2023-05-07T02:28:09;1.05;51.53
71396;DHT22;59888;55.814;37.132;2023-05-07T02:30:44;1.10;52.98
71396;DHT22;59888;55.814;37.132;2023-05-07T02:33:11;1.12;52.11
71396;DHT22;59888;55.814;37.132;2023-05-07T02:35:40;1.18;51.04
71396;DHT22;59888;55.814;37.132;2023-05-07T02:38:06;1.19;51.47
71396;DHT22;59888;55.814;37.132;2023-05-07T02:40:33;1.23;50.26
71396;DHT22;59888;55.814;37.132;2023-05-07T02:42:59;1.27;51.58
71396;DHT22;59888;55.814;37.132;2023-05-07T02:45:25;1.33;50.59
71396;DHT22;59888;55.814;37.132;2023-05-07T02:47:53;1.37;51.36
71396;DHT22;59888;55.814;37.132;2023-05-07T02:50:20;1.41;51.04
71396;DHT22;59888;55.814;37.132;2023-05-07T02:52:46;1.46;50.44
71396;DHT22;59888;55.814;37.132;2023-05-07T02:55:13;1.51;51.17
71396;DHT22;59888;55.814;37.132;2023-05-07T02:57:39;1.54;50.62
71396;DHT22;59888;55.814;37.132;2023-05-07T03:00:16;1.54;52.29
71396;DHT22;59888;55.814;37.132;2023-05-07T03:02:53;1.65;51.28
71396;DHT22;59888;55.814;37.132;2023-05-07T03:05:20;1.75;50.24
71396;DHT22;59888;55.814;37.132;2023-05-07T03:07:46;1.75;51.81
71396;DHT22;59888;55.814;37.132;2023-05-07T03:10:14;1.78;50.46
71396;DHT22;59888;55.814;37.132;2023-05-07T03:12:40;1.85;50.30
71396;DHT22;59888;55.814;37.132;2023-05-07T03:15:08;1.94;51.21
71396;DHT22;59888;55.814;37.132;2023-05-07T03:17:34;1.99;51.11
71396;DHT22;59888;55.814;37.132;2023-05-07T03:20:00;2.10;51.22
71396;DHT22;59888;55.814;37.132;2023-05-07T03:22:27;2.19;50.27
71396;DHT22;59888;55.814;37.132;2023-05-07T03:24:53;2.37;50.13
71396;DHT22;59888;55.814;37.132;2023-05-07T03:27:19;2.56;48.99
71396;DHT22;59888;55.814;37.132;2023-05-07T03:29:45;2.75;49.08
71396;DHT22;59888;55.814;37.132;2023-05-07T03:32:11;2.95;49.11
71396;DHT22;59888;55.814;37.132;2023-05-07T03:34:37;3.15;48.83
71396;DHT22;59888;55.814;37.132;2023-05-07T03:37:03;3.28;48.75
71396;DHT22;59888;55.814;37.132;2023-05-07T03:39:29;3.42;48.28
71396;DHT22;59888;55.814;37.132;2023-05-07T03:41:56;3.57;49.44
71396;DHT22;59888;55.814;37.132;2023-05-07T03:44:22;3.69;47.90
71396;DHT22;59888;55.814;37.132;2023-05-07T03:46:50;3.85;46.56
71396;DHT22;59888;55.814;37.132;2023-05-07T03:49:16;3.93;47.57
71396;DHT22;59888;55.814;37.132;2023-05-07T03:51:42;4.08;47.59
71396;DHT22;59888;55.814;37.132;2023-05-07T03:54:09;4.13;47.22
71396;DHT22;59888;55.814;37.132;2023-05-07T03:56:36;4.19;46.93
71396;DHT22;59888;55.814;37.132;2023-05-07T03:59:02;4.32;47.01
71396;DHT22;59888;55.814;37.132;2023-05-07T04:01:28;4.41;47.37
71396;DHT22;59888;55.814;37.132;2023-05-07T04:03:55;4.47;47.10
71396;DHT22;59888;55.814;37.132;2023-05-07T04:06:22;4.59;46.89
71396;DHT22;59888;55.814;37.132;2023-05-07T04:08:49;4.69;46.73
71396;DHT22;59888;55.814;37.132;2023-05-07T04:11:15;4.84;46.43
71396;DHT22;59888;55.814;37.132;2023-05-07T04:13:41;4.95;45.09
71396;DHT22;59888;55.814;37.132;2023-05-07T04:16:08;5.04;46.16
71396;DHT22;59888;55.814;37.132;2023-05-07T04:18:37;5.07;44.82
71396;DHT22;59888;55.814;37.132;2023-05-07T04:21:03;5.11;45.53
71396;DHT22;59888;55.814;37.132;2023-05-07T04:23:30;5.19;44.47
71396;DHT22;59888;55.814;37.132;2023-05-07T04:26:02;5.26;45.47
71396;DHT22;59888;55.814;37.132;2023-05-07T04:28:35;5.37;44.90
71396;DHT22;59888;55.814;37.132;2023-05-07T04:31:01;5.51;44.38
71396;DHT22;59888;55.814;37.132;2023-05-07T04:33:31;5.64;44.60
71396;DHT22;59888;55.814;37.132;2023-05-07T04:36:01;5.77;44.12
71396;DHT22;59888;55.814;37.132;2023-05-07T04:38:30;5.80;44.00
71396;DHT22;59888;55.814;37.132;2023-05-07T04:41:05;5.91;43.61
71396;DHT22;59888;55.814;37.132;2023-05-07T04:43:34;5.95;43.29
71396;DHT22;59888;55.814;37.132;2023-05-07T04:46:00;6.01;43.26
71396;DHT22;59888;55.814;37.132;2023-05-07T04:48:26;6.07;43.14
71396;DHT22;59888;55.814;37.132;2023-05-07T04:50:53;6.20;43.08
71396;DHT22;59888;55.814;37.132;2023-05-07T04:53:20;6.25;42.65
71396;DHT22;59888;55.814;37.132;2023-05-07T04:55:48;6.27;42.57
71396;DHT22;59888;55.814;37.132;2023-05-07T04:58:16;6.37;42.84
71396;DHT22;59888;55.814;37.132;2023-05-07T05:00:44;6.54;42.19
71396;DHT22;59888;55.814;37.132;2023-05-07T05:03:10;6.67;41.84
71396;DHT22;59888;55.814;37.132;2023-05-07T05:05:38;6.75;41.75
71396;DHT22;59888;55.814;37.132;2023-05-07T05:08:04;6.85;41.80
71396;DHT22;59888;55.814;37.132;2023-05-07T05:10:31;7.00;41.20
71396;DHT22;59888;55.814;37.132;2023-05-07T05:12:57;7.11;41.01
71396;DHT22;59888;55.814;37.132;2023-05-07T05:15:24;7.18;40.52
71396;DHT22;59888;55.814;37.132;2023-05-07T05:17:50;7.14;40.05
71396;DHT22;59888;55.814;37.132;2023-05-07T05:20:17;7.12;40.17
71396;DHT22;59888;55.814;37.132;2023-05-07T05:22:43;7.23;39.96
71396;DHT22;59888;55.814;37.132;2023-05-07T05:25:11;7.31;39.60
71396;DHT22;59888;55.814;37.132;2023-05-07T05:27:37;7.38;39.60
71396;DHT22;59888;55.814;37.132;2023-05-07T05:30:04;7.52;39.16
71396;DHT22;59888;55.814;37.132;2023-05-07T05:32:32;7.47;38.01
71396;DHT22;59888;55.814;37.132;2023-05-07T05:34:59;7.38;38.75
71396;DHT22;59888;55.814;37.132;2023-05-07T05:37:26;7.47;38.82
71396;DHT22;59888;55.814;37.132;2023-05-07T05:39:52;7.57;38.45
71396;DHT22;59888;55.814;37.132;2023-05-07T05:42:21;7.65;38.33
71396;DHT22;59888;55.814;37.132;2023-05-07T05:44:47;7.79;37.43
71396;DHT22;59888;55.814;37.132;2023-05-07T05:47:13;7.97;37.59
71396;DHT22;59888;55.814;37.132;2023-05-07T05:49:40;8.04;37.01
71396;DHT22;59888;55.814;37.132;2023-05-07T05:52:07;8.06;37.11
71396;DHT22;59888;55.814;37.132;2023-05-07T05:54:33;8.20;35.87
71396;DHT22;59888;55.814;37.132;2023-05-07T05:56:59;8.35;35.99
71396;DHT22;59888;55.814;37.132;2023-05-07T05:59:25;8.51;35.50
71396;DHT22;59888;55.814;37.132;2023-05-07T06:01:52;8.72;35.31
71396;DHT22;59888;55.814;37.132;2023-05-07T06:04:18;8.81;34.63
71396;DHT22;59888;55.814;37.132;2023-05-07T06:06:44;8.98;34.64
71396;DHT22;59888;55.814;37.132;2023-05-07T06:09:11;9.06;34.37
71396;DHT22;59888;55.814;37.132;2023-05-07T06:11:41;9.16;33.97
71396;DHT22;59888;55.814;37.132;2023-05-07T06:14:07;9.33;33.78
71396;DHT22;59888;55.814;37.132;2023-05-07T06:16:34;9.57;34.76
71396;DHT22;59888;55.814;37.132;2023-05-07T06:19:00;9.57;33.71
71396;DHT22;59888;55.814;37.132;2023-05-07T06:21:26;9.59;33.31
71396;DHT22;59888;55.814;37.132;2023-05-07T06:23:52;9.38;33.87
71396;DHT22;59888;55.814;37.132;2023-05-07T06:26:18;9.38;33.73
71396;DHT22;59888;55.814;37.132;2023-05-07T06:28:46;9.59;33.10
71396;DHT22;59888;55.814;37.132;2023-05-07T06:31:19;9.85;33.29
71396;DHT22;59888;55.814;37.132;2023-05-07T06:33:59;9.96;33.56
71396;DHT22;59888;55.814;37.132;2023-05-07T06:36:34;9.72;32.67
71396;DHT22;59888;55.814;37.132;2023-05-07T06:39:08;9.52;32.39
71396;DHT22;59888;55.814;37.132;2023-05-07T06:41:35;9.23;31.67
71396;DHT22;59888;55.814;37.132;2023-05-07T06:44:06;9.11;32.15
71396;DHT22;59888;55.814;37.132;2023-05-07T06:46:45;9.22;32.57
71396;DHT22;59888;55.814;37.132;2023-05-07T06:49:13;9.40;32.43
71396;DHT22;59888;55.814;37.132;2023-05-07T06:51:39;9.60;32.80
71396;DHT22;59888;55.814;37.132;2023-05-07T06:54:05;9.79;32.36
71396;DHT22;59888;55.814;37.132;2023-05-07T06:56:33;9.88;32.41
71396;DHT22;59888;55.814;37.132;2023-05-07T06:59:04;9.91;32.51
71396;DHT22;59888;55.814;37.132;2023-05-07T07:01:34;9.71;31.44
71396;DHT22;59888;55.814;37.132;2023-05-07T07:04:01;9.52;30.13
71396;DHT22;59888;55.814;37.132;2023-05-07T07:06:29;9.46;31.09
71396;DHT22;59888;55.814;37.132;2023-05-07T07:08:58;9.25;28.81
71396;DHT22;59888;55.814;37.132;2023-05-07T07:11:24;9.33;30.99
71396;DHT22;59888;55.814;37.132;2023-05-07T07:13:50;9.51;30.85
71396;DHT22;59888;55.814;37.132;2023-05-07T07:16:17;9.80;30.93
71396;DHT22;59888;55.814;37.132;2023-05-07T07:18:45;9.93;30.71
71396;DHT22;59888;55.814;37.132;2023-05-07T07:21:11;9.97;30.27
71396;DHT22;59888;55.814;37.132;2023-05-07T07:23:38;9.99;30.33
71396;DHT22;59888;55.814;37.132;2023-05-07T07:26:04;9.81;30.20
71396;DHT22;59888;55.814;37.132;2023-05-07T07:28:31;9.67;30.25
71396;DHT22;59888;55.814;37.132;2023-05-07T07:30:58;9.71;30.48
71396;DHT22;59888;55.814;37.132;2023-05-07T07:33:24;9.93;30.87
71396;DHT22;59888;55.814;37.132;2023-05-07T07:35:50;10.15;30.71
71396;DHT22;59888;55.814;37.132;2023-05-07T07:38:16;10.28;29.93
71396;DHT22;59888;55.814;37.132;2023-05-07T07:40:42;10.46;29.96
71396;DHT22;59888;55.814;37.132;2023-05-07T07:43:10;10.42;28.08
71396;DHT22;59888;55.814;37.132;2023-05-07T07:45:36;10.36;28.82
71396;DHT22;59888;55.814;37.132;2023-05-07T07:48:03;10.38;29.19
71396;DHT22;59888;55.814;37.132;2023-05-07T07:50:33;10.52;29.22
71396;DHT22;59888;55.814;37.132;2023-05-07T07:52:59;10.35;29.12
71396;DHT22;59888;55.814;37.132;2023-05-07T07:55:26;10.34;28.08
71396;DHT22;59888;55.814;37.132;2023-05-07T07:57:53;10.20;27.87
71396;DHT22;59888;55.814;37.132;2023-05-07T08:00:21;10.01;29.46
71396;DHT22;59888;55.814;37.132;2023-05-07T08:02:51;9.85;28.57
71396;DHT22;59888;55.814;37.132;2023-05-07T08:05:24;9.90;28.58
71396;DHT22;59888;55.814;37.132;2023-05-07T08:07:51;10.04;28.17
71396;DHT22;59888;55.814;37.132;2023-05-07T08:10:21;10.42;28.74
71396;DHT22;59888;55.814;37.132;2023-05-07T08:12:50;11.03;28.68
71396;DHT22;59888;55.814;37.132;2023-05-07T08:15:16;11.47;28.18
71396;DHT22;59888;55.814;37.132;2023-05-07T08:17:43;11.51;26.71
71396;DHT22;59888;55.814;37.132;2023-05-07T08:20:09;11.30;27.65
71396;DHT22;59888;55.814;37.132;2023-05-07T08:22:36;11.19;25.72
71396;DHT22;59888;55.814;37.132;2023-05-07T08:25:03;10.88;26.36
71396;DHT22;59888;55.814;37.132;2023-05-07T08:27:30;10.60;26.44
71396;DHT22;59888;55.814;37.132;2023-05-07T08:29:56;10.44;27.51
71396;DHT22;59888;55.814;37.132;2023-05-07T08:32:22;10.27;27.34
71396;DHT22;59888;55.814;37.132;2023-05-07T08:34:48;10.28;26.82
71396;DHT22;59888;55.814;37.132;2023-05-07T08:37:14;10.24;27.36
71396;DHT22;59888;55.814;37.132;2023-05-07T08:39:40;10.57;26.63
71396;DHT22;59888;55.814;37.132;2023-05-07T08:42:14;10.88;25.33
71396;DHT22;59888;55.814;37.132;2023-05-07T08:44:45;11.02;25.88
71396;DHT22;59888;55.814;37.132;2023-05-07T08:47:16;11.49;26.96
71396;DHT22;59888;55.814;37.132;2023-05-07T08:49:43;11.97;26.68
71396;DHT22;59888;55.814;37.132;2023-05-07T08:52:09;12.31;25.17
71396;DHT22;59888;55.814;37.132;2023-05-07T08:54:37;12.42;25.36
71396;DHT22;59888;55.814;37.132;2023-05-07T08:57:05;12.41;25.20
71396;DHT22;59888;55.814;37.132;2023-05-07T08:59:33;12.35;25.46
71396;DHT22;59888;55.814;37.132;2023-05-07T09:01:59;12.28;23.98
71396;DHT22;59888;55.814;37.132;2023-05-07T09:04:26;12.18;25.41
71396;DHT22;59888;55.814;37.132;2023-05-07T09:06:52;11.98;25.15
71396;DHT22;59888;55.814;37.132;2023-05-07T09:09:21;11.84;25.57
71396;DHT22;59888;55.814;37.132;2023-05-07T09:11:56;11.67;23.43
71396;DHT22;59888;55.814;37.132;2023-05-07T09:14:24;11.55;25.49
71396;DHT22;59888;55.814;37.132;2023-05-07T09:16:54;11.58;25.56
71396;DHT22;59888;55.814;37.132;2023-05-07T09:19:24;11.75;25.52
71396;DHT22;59888;55.814;37.132;2023-05-07T09:22:01;11.98;25.49
71396;DHT22;59888;55.814;37.132;2023-05-07T09:24:30;12.15;26.14
71396;DHT22;59888;55.814;37.132;2023-05-07T09:27:02;12.12;25.09
71396;DHT22;59888;55.814;37.132;2023-05-07T09:29:30;12.01;25.72
71396;DHT22;59888;55.814;37.132;2023-05-07T09:32:06;11.96;25.82
71396;DHT22;59888;55.814;37.132;2023-05-07T09:34:33;11.85;24.70
71396;DHT22;59888;55.814;37.132;2023-05-07T09:37:02;11.86;24.72
71396;DHT22;59888;55.814;37.132;2023-05-07T09:39:46;11.76;24.23
71396;DHT22;59888;55.814;37.132;2023-05-07T09:42:14;11.98;25.50
71396;DHT22;59888;55.814;37.132;2023-05-07T09:44:44;12.37;25.13
71396;DHT22;59888;55.814;37.132;2023-05-07T09:47:19;12.38;22.64
71396;DHT22;59888;55.814;37.132;2023-05-07T09:49:50;12.45;24.80
71396;DHT22;59888;55.814;37.132;2023-05-07T09:52:20;12.55;24.03
71396;DHT22;59888;55.814;37.132;2023-05-07T09:54:51;12.75;25.20
71396;DHT22;59888;55.814;37.132;2023-05-07T09:57:22;12.93;24.01
71396;DHT22;59888;55.814;37.132;2023-05-07T09:59:56;12.70;22.50
71396;DHT22;59888;55.814;37.132;2023-05-07T10:02:27;12.56;23.91
71396;DHT22;59888;55.814;37.132;2023-05-07T10:04:55;12.42;24.51
71396;DHT22;59888;55.814;37.132;2023-05-07T10:07:29;12.27;23.87
71396;DHT22;59888;55.814;37.132;2023-05-07T10:10:00;12.18;24.20
71396;DHT22;59888;55.814;37.132;2023-05-07T10:12:32;12.21;24.56
71396;DHT22;59888;55.814;37.132;2023-05-07T10:15:12;12.27;23.37
71396;DHT22;59888;55.814;37.132;2023-05-07T10:17:40;12.55;23.66
71396;DHT22;59888;55.814;37.132;2023-05-07T10:20:09;12.75;23.41
71396;DHT22;59888;55.814;37.132;2023-05-07T10:22:46;12.72;22.98
71396;DHT22;59888;55.814;37.132;2023-05-07T10:25:25;12.71;23.54
71396;DHT22;59888;55.814;37.132;2023-05-07T10:27:56;12.58;21.88
71396;DHT22;59888;55.814;37.132;2023-05-07T10:33:26;12.76;24.17
71396;DHT22;59888;55.814;37.132;2023-05-07T10:35:58;12.87;23.05
71396;DHT22;59888;55.814;37.132;2023-05-07T10:38:27;12.90;22.97
71396;DHT22;59888;55.814;37.132;2023-05-07T10:40:54;12.81;22.79
71396;DHT22;59888;55.814;37.132;2023-05-07T10:43:20;12.77;21.85
71396;DHT22;59888;55.814;37.132;2023-05-07T10:51:37;12.74;22.98
71396;DHT22;59888;55.814;37.132;2023-05-07T10:56:42;13.05;24.04
71396;DHT22;59888;55.814;37.132;2023-05-07T11:01:58;13.38;20.95
71396;DHT22;59888;55.814;37.132;2023-05-07T11:05:22;13.19;19.86
71396;DHT22;59888;55.814;37.132;2023-05-07T11:07:55;13.00;22.67
71396;DHT22;59888;55.814;37.132;2023-05-07T11:16:23;13.12;19.46
71396;DHT22;59888;55.814;37.132;2023-05-07T11:18:56;13.01;22.13
71396;DHT22;59888;55.814;37.132;2023-05-07T11:21:39;12.93;21.81
71396;DHT22;59888;55.814;37.132;2023-05-07T11:24:21;12.96;22.64
71396;DHT22;59888;55.814;37.132;2023-05-07T11:26:53;13.03;21.26
71396;DHT22;59888;55.814;37.132;2023-05-07T11:29:21;12.86;22.75
71396;DHT22;59888;55.814;37.132;2023-05-07T11:31:54;12.84;22.29
71396;DHT22;59888;55.814;37.132;2023-05-07T11:34:25;12.66;21.91
71396;DHT22;59888;55.814;37.132;2023-05-07T11:36:53;12.56;23.09
71396;DHT22;59888;55.814;37.132;2023-05-07T11:39:28;12.57;22.61
71396;DHT22;59888;55.814;37.132;2023-05-07T11:41:55;12.53;23.17
71396;DHT22;59888;55.814;37.132;2023-05-07T11:44:21;12.65;22.08
71396;DHT22;59888;55.814;37.132;2023-05-07T11:46:48;12.96;21.33
71396;DHT22;59888;55.814;37.132;2023-05-07T11:49:14;12.93;21.32
71396;DHT22;59888;55.814;37.132;2023-05-07T11:51:41;12.86;18.77
71396;DHT22;59888;55.814;37.132;2023-05-07T11:54:08;12.78;21.76
71396;DHT22;59888;55.814;37.132;2023-05-07T11:56:37;13.04;21.24
71396;DHT22;59888;55.814;37.132;2023-05-07T11:59:03;13.12;21.18
71396;DHT22;59888;55.814;37.132;2023-05-07T12:01:28;12.84;20.66
71396;DHT22;59888;55.814;37.132;2023-05-07T12:03:55;12.66;21.71
71396;DHT22;59888;55.814;37.132;2023-05-07T12:06:20;12.75;23.34
71396;DHT22;59888;55.814;37.132;2023-05-07T12:08:46;12.94;22.50
71396;DHT22;59888;55.814;37.132;2023-05-07T12:11:15;13.06;20.00
71396;DHT22;59888;55.814;37.132;2023-05-07T12:13:43;12.97;21.66
71396;DHT22;59888;55.814;37.132;2023-05-07T12:16:10;13.03;20.12
71396;DHT22;59888;55.814;37.132;2023-05-07T12:18:37;13.12;22.14
71396;DHT22;59888;55.814;37.132;2023-05-07T12:21:04;13.25;18.90
71396;DHT22;59888;55.814;37.132;2023-05-07T12:23:31;13.44;21.85
71396;DHT22;59888;55.814;37.132;2023-05-07T12:25:57;13.70;21.09
71396;DHT22;59888;55.814;37.132;2023-05-07T12:28:23;13.96;19.26
71396;DHT22;59888;55.814;37.132;2023-05-07T12:30:50;13.51;20.47
71396;DHT22;59888;55.814;37.132;2023-05-07T12:33:19;13.23;19.98
71396;DHT22;59888;55.814;37.132;2023-05-07T12:35:47;13.07;20.41
71396;DHT22;59888;55.814;37.132;2023-05-07T12:38:15;12.97;20.39
71396;DHT22;59888;55.814;37.132;2023-05-07T12:40:53;12.90;20.29
71396;DHT22;59888;55.814;37.132;2023-05-07T12:43:27;12.95;20.76
71396;DHT22;59888;55.814;37.132;2023-05-07T12:45:55;13.22;20.59
71396;DHT22;59888;55.814;37.132;2023-05-07T12:48:22;13.59;21.66
71396;DHT22;59888;55.814;37.132;2023-05-07T12:50:55;14.17;20.27
71396;DHT22;59888;55.814;37.132;2023-05-07T12:53:24;14.99;20.32
71396;DHT22;59888;55.814;37.132;2023-05-07T12:55:52;17.43;18.12
71396;DHT22;59888;55.814;37.132;2023-05-07T12:58:28;17.93;16.42
71396;DHT22;59888;55.814;37.132;2023-05-07T13:00:56;17.17;18.49
71396;DHT22;59888;55.814;37.132;2023-05-07T13:03:32;16.34;18.20
71396;DHT22;59888;55.814;37.132;2023-05-07T13:06:03;15.70;19.91
71396;DHT22;59888;55.814;37.132;2023-05-07T13:08:34;15.21;19.51
71396;DHT22;59888;55.814;37.132;2023-05-07T13:11:02;14.88;21.00
71396;DHT22;59888;55.814;37.132;2023-05-07T13:13:34;14.35;20.17
71396;DHT22;59888;55.814;37.132;2023-05-07T13:16:01;14.03;20.03
71396;DHT22;59888;55.814;37.132;2023-05-07T13:18:29;13.93;20.54
71396;DHT22;59888;55.814;37.132;2023-05-07T13:20:56;13.80;19.70
71396;DHT22;59888;55.814;37.132;2023-05-07T13:23:22;13.70;21.51
71396;DHT22;59888;55.814;37.132;2023-05-07T13:25:48;13.66;20.72
71396;DHT22;59888;55.814;37.132;2023-05-07T13:28:16;13.83;21.57
71396;DHT22;59888;55.814;37.132;2023-05-07T13:30:42;16.66;20.99
71396;DHT22;59888;55.814;37.132;2023-05-07T13:33:08;17.01;18.58
71396;DHT22;59888;55.814;37.132;2023-05-07T13:35:34;17.73;21.18
71396;DHT22;59888;55.814;37.132;2023-05-07T13:38:01;20.41;17.65
71396;DHT22;59888;55.814;37.132;2023-05-07T13:40:26;20.15;17.25
71396;DHT22;59888;55.814;37.132;2023-05-07T13:42:53;20.96;19.58
71396;DHT22;59888;55.814;37.132;2023-05-07T13:45:19;23.35;17.02
71396;DHT22;59888;55.814;37.132;2023-05-07T13:47:46;0.00;0.00
71396;DHT22;59888;55.814;37.132;2023-05-07T13:50:12;0.00;0.00
71396;DHT22;59888;55.814;37.132;2023-05-07T13:52:43;27.60;12.81
71396;DHT22;59888;55.814;37.132;2023-05-07T13:55:20;0.00;12.55
71396;DHT22;59888;55.814;37.132;2023-05-07T13:57:46;0.00;13.49
71396;DHT22;59888;55.814;37.132;2023-05-07T14:00:14;31.15;13.71
71396;DHT22;59888;55.814;37.132;2023-05-07T14:02:41;30.19;10.67
71396;DHT22;59888;55.814;37.132;2023-05-07T14:05:07;29.23;8.03
71396;DHT22;59888;55.814;37.132;2023-05-07T14:07:34;29.23;11.64
71396;DHT22;59888;55.814;37.132;2023-05-07T14:10:01;30.27;12.49
71396;DHT22;59888;55.814;37.132;2023-05-07T14:12:32;31.26;13.36
71396;DHT22;59888;55.814;37.132;2023-05-07T14:14:59;32.55;11.45
71396;DHT22;59888;55.814;37.132;2023-05-07T14:17:25;31.73;8.91
71396;DHT22;59888;55.814;37.132;2023-05-07T14:19:53;28.52;10.73
71396;DHT22;59888;55.814;37.132;2023-05-07T14:22:23;27.43;8.28
71396;DHT22;59888;55.814;37.132;2023-05-07T14:24:49;27.40;10.68
71396;DHT22;59888;55.814;37.132;2023-05-07T14:27:16;27.94;11.59
71396;DHT22;59888;55.814;37.132;2023-05-07T14:29:42;28.72;8.47
71396;DHT22;59888;55.814;37.132;2023-05-07T14:32:08;29.67;11.78
71396;DHT22;59888;55.814;37.132;2023-05-07T14:34:34;28.94;10.08
71396;DHT22;59888;55.814;37.132;2023-05-07T14:37:00;26.75;9.24
71396;DHT22;59888;55.814;37.132;2023-05-07T14:39:27;24.68;10.27
71396;DHT22;59888;55.814;37.132;2023-05-07T14:41:54;23.09;13.66
71396;DHT22;59888;55.814;37.132;2023-05-07T14:44:21;21.92;13.77
71396;DHT22;59888;55.814;37.132;2023-05-07T14:46:47;20.87;14.48
71396;DHT22;59888;55.814;37.132;2023-05-07T14:49:14;19.98;14.94
71396;DHT22;59888;55.814;37.132;2023-05-07T14:51:47;19.11;14.23
71396;DHT22;59888;55.814;37.132;2023-05-07T14:54:13;18.32;14.16
71396;DHT22;59888;55.814;37.132;2023-05-07T14:56:40;17.80;15.43
71396;DHT22;59888;55.814;37.132;2023-05-07T14:59:07;17.19;15.49
71396;DHT22;59888;55.814;37.132;2023-05-07T15:01:34;16.60;16.25
71396;DHT22;59888;55.814;37.132;2023-05-07T15:04:00;16.72;16.94
71396;DHT22;59888;55.814;37.132;2023-05-07T15:06:26;18.43;16.50
71396;DHT22;59888;55.814;37.132;2023-05-07T15:08:52;19.97;15.02
71396;DHT22;59888;55.814;37.132;2023-05-07T15:11:18;21.17;13.77
71396;DHT22;59888;55.814;37.132;2023-05-07T15:13:44;22.57;13.96
71396;DHT22;59888;55.814;37.132;2023-05-07T15:16:10;23.59;13.50
71396;DHT22;59888;55.814;37.132;2023-05-07T15:18:36;24.00;13.17
71396;DHT22;59888;55.814;37.132;2023-05-07T15:21:02;23.36;13.25
71396;DHT22;59888;55.814;37.132;2023-05-07T15:23:28;22.63;13.94
71396;DHT22;59888;55.814;37.132;2023-05-07T15:25:54;21.84;12.05
71396;DHT22;59888;55.814;37.132;2023-05-07T15:28:20;20.68;12.91
71396;DHT22;59888;55.814;37.132;2023-05-07T15:30:46;19.83;13.87
71396;DHT22;59888;55.814;37.132;2023-05-07T15:33:12;19.69;15.64
71396;DHT22;59888;55.814;37.132;2023-05-07T15:35:38;19.81;14.86
71396;DHT22;59888;55.814;37.132;2023-05-07T15:38:04;20.14;14.81
71396;DHT22;59888;55.814;37.132;2023-05-07T15:40:32;20.64;13.56
71396;DHT22;59888;55.814;37.132;2023-05-07T15:42:58;20.96;14.36
71396;DHT22;59888;55.814;37.132;2023-05-07T15:45:24;20.93;12.67
71396;DHT22;59888;55.814;37.132;2023-05-07T15:47:50;20.73;13.97
71396;DHT22;59888;55.814;37.132;2023-05-07T15:50:16;20.63;14.67